Time,TemperatureF,DewpointF,PressureIn,WindDirection,WindDirectionDegrees,WindSpeedMPH,WindSpeedGustMPH,Humidity,HourlyPrecipIn,Conditions,Clouds,dailyrainin,SoftwareType,DateUTC
2013-05-07 00:00:00,48.9,36.9,30.05,NW,315,2.2,3.8,63,0.00,,,0.00,pywws,2013-05-07 06:00:00,
2013-05-07 00:01:00,49.5,37.0,30.05,NW,315,2.2,3.1,62,0.00,,,0.00,pywws,2013-05-07 06:01:00,
2013-05-07 00:06:00,49.6,36.7,30.06,West,270,3.1,3.1,61,0.00,,,0.00,pywws,2013-05-07 06:06:00,
2013-05-07 00:11:00,49.6,36.7,30.06,West,270,1.6,2.2,61,0.00,,,0.00,pywws,2013-05-07 06:11:00,
2013-05-07 00:16:00,49.6,37.2,30.06,NW,315,1.6,3.1,62,0.00,,,0.00,pywws,2013-05-07 06:16:00,
2013-05-07 00:21:00,49.5,37.0,30.06,NW,315,1.6,3.1,62,0.00,,,0.00,pywws,2013-05-07 06:21:00,
2013-05-07 00:26:00,50.5,36.3,30.06,NW,315,0.7,1.6,58,0.00,,,0.00,pywws,2013-05-07 06:26:00,
2013-05-07 00:31:00,50.7,35.6,30.06,NW,315,0.7,1.6,56,0.00,,,0.00,pywws,2013-05-07 06:31:00,
2013-05-07 00:36:00,51.3,35.6,30.05,NW,315,1.6,2.2,55,0.00,,,0.00,pywws,2013-05-07 06:36:00,
2013-05-07 00:41:00,50.9,34.9,30.05,North,-999,2.2,3.1,54,0.00,,,0.00,pywws,2013-05-07 06:41:00,
2013-05-07 00:46:00,50.9,34.4,30.05,West,270,2.2,3.8,53,0.00,,,0.00,pywws,2013-05-07 06:46:00,
2013-05-07 01:00:00,50.2,34.6,30.05,West,270,2.2,3.8,55,0.00,,,0.00,pywws,2013-05-07 07:00:00,
2013-05-07 01:01:00,49.1,35.4,30.05,NW,315,2.2,3.8,59,0.00,,,0.00,pywws,2013-05-07 07:01:00,
2013-05-07 01:06:00,49.1,35.4,30.05,NW,315,2.2,3.1,59,0.00,,,0.00,pywws,2013-05-07 07:06:00,
2013-05-07 01:11:00,49.8,35.6,30.05,NW,315,3.8,5.4,58,0.00,,,0.00,pywws,2013-05-07 07:11:00,
2013-05-07 01:16:00,50.9,34.9,30.05,NW,315,3.1,4.5,54,0.00,,,0.00,pywws,2013-05-07 07:16:00,
2013-05-07 01:21:00,50.7,34.2,30.05,NW,315,0.0,1.6,53,0.00,,,0.00,pywws,2013-05-07 07:21:00,
2013-05-07 01:26:00,50.4,34.4,30.04,NW,315,1.6,2.2,54,0.00,,,0.00,pywws,2013-05-07 07:26:00,
2013-05-07 01:31:00,50.7,34.7,30.04,West,270,3.1,3.8,54,0.00,,,0.00,pywws,2013-05-07 07:31:00,
2013-05-07 01:36:00,50.0,34.5,30.04,NW,315,3.1,3.8,55,0.00,,,0.00,pywws,2013-05-07 07:36:00,
2013-05-07 01:41:00,49.8,35.2,30.05,NW,315,3.1,3.8,57,0.00,,,0.00,pywws,2013-05-07 07:41:00,
2013-05-07 01:46:00,49.1,35.0,30.04,West,270,3.1,4.5,58,0.00,,,0.00,pywws,2013-05-07 07:46:00,
2013-05-07 02:00:00,48.9,35.2,30.04,NW,315,3.1,3.8,59,0.00,,,0.00,pywws,2013-05-07 08:00:00,
2013-05-07 02:01:00,49.1,35.0,30.04,North,0,0.0,2.2,58,0.00,,,0.00,pywws,2013-05-07 08:01:00,
2013-05-07 02:06:00,48.9,34.8,30.04,NE,45,0.0,0.0,58,0.00,,,0.00,pywws,2013-05-07 08:06:00,
2013-05-07 02:11:00,48.7,34.6,30.05,NW,315,0.0,0.0,58,0.00,,,0.00,pywws,2013-05-07 08:11:00,
2013-05-07 02:16:00,48.6,34.5,30.04,North,0,0.0,0.0,58,0.00,,,0.00,pywws,2013-05-07 08:16:00,
2013-05-07 02:21:00,48.6,34.5,30.05,North,0,0.0,1.6,58,0.00,,,0.00,pywws,2013-05-07 08:21:00,
2013-05-07 02:26:00,48.6,34.5,30.05,NW,315,0.0,0.7,58,0.00,,,0.00,pywws,2013-05-07 08:26:00,
2013-05-07 02:31:00,48.4,34.3,30.05,NW,315,0.0,0.0,58,0.00,,,0.00,pywws,2013-05-07 08:31:00,
2013-05-07 02:36:00,48.2,34.1,30.04,North,0,0.0,0.0,58,0.00,,,0.00,pywws,2013-05-07 08:36:00,
2013-05-07 02:41:00,48.0,34.4,30.04,NW,315,0.0,0.0,59,0.00,,,0.00,pywws,2013-05-07 08:41:00,
2013-05-07 02:46:00,48.2,34.1,30.04,NW,315,0.7,1.6,58,0.00,,,0.00,pywws,2013-05-07 08:46:00,
2013-05-07 03:00:00,48.2,33.7,30.04,NW,315,0.7,1.6,57,0.00,,,0.00,pywws,2013-05-07 09:00:00,
2013-05-07 03:01:00,48.7,34.2,30.05,NW,315,3.1,3.8,57,0.00,,,0.00,pywws,2013-05-07 09:01:00,
2013-05-07 03:06:00,49.1,34.1,30.05,North,0,2.2,3.1,56,0.00,,,0.00,pywws,2013-05-07 09:06:00,
2013-05-07 03:11:00,48.9,34.4,30.05,NW,315,1.6,3.8,57,0.00,,,0.00,pywws,2013-05-07 09:11:00,
2013-05-07 03:16:00,48.9,34.8,30.05,NW,315,2.2,3.8,58,0.00,,,0.00,pywws,2013-05-07 09:16:00,
2013-05-07 03:21:00,48.7,34.6,30.05,WNW,292,0.7,3.1,58,0.00,,,0.00,pywws,2013-05-07 09:21:00,
2013-05-07 03:26:00,48.6,34.5,30.05,NW,315,0.7,2.2,58,0.00,,,0.00,pywws,2013-05-07 09:26:00,
2013-05-07 03:31:00,48.4,34.3,30.05,NW,315,3.8,4.5,58,0.00,,,0.00,pywws,2013-05-07 09:31:00,
2013-05-07 03:36:00,48.0,34.8,30.05,NW,315,4.5,6.0,60,0.00,,,0.00,pywws,2013-05-07 09:36:00,
2013-05-07 03:41:00,47.5,34.7,30.05,NW,315,4.5,5.4,61,0.00,,,0.00,pywws,2013-05-07 09:41:00,
2013-05-07 03:46:00,47.7,34.9,30.05,NW,315,3.8,4.5,61,0.00,,,0.00,pywws,2013-05-07 09:46:00,
2013-05-07 04:00:00,47.7,34.5,30.05,NW,315,2.2,3.8,60,0.00,,,0.00,pywws,2013-05-07 10:00:00,
2013-05-07 04:01:00,48.0,34.0,30.05,NW,315,1.6,3.1,58,0.00,,,0.00,pywws,2013-05-07 10:01:00,
2013-05-07 04:06:00,48.0,34.0,30.05,NW,315,2.2,3.1,58,0.00,,,0.00,pywws,2013-05-07 10:06:00,
2013-05-07 04:11:00,48.4,33.9,30.05,NW,315,1.6,2.2,57,0.00,,,0.00,pywws,2013-05-07 10:11:00,
2013-05-07 04:16:00,48.4,33.9,30.05,West,270,2.2,3.1,57,0.00,,,0.00,pywws,2013-05-07 10:16:00,
2013-05-07 04:21:00,47.7,35.3,30.05,NW,315,3.1,3.8,62,0.00,,,0.00,pywws,2013-05-07 10:21:00,
2013-05-07 04:26:00,47.7,35.3,30.05,NW,315,0.7,0.7,62,0.00,,,0.00,pywws,2013-05-07 10:26:00,
2013-05-07 04:31:00,48.4,35.1,30.05,NW,315,0.0,0.0,60,0.00,,,0.00,pywws,2013-05-07 10:31:00,
2013-05-07 04:36:00,49.3,34.3,30.05,North,0,0.0,0.7,56,0.00,,,0.00,pywws,2013-05-07 10:36:00,
2013-05-07 04:41:00,50.0,33.5,30.05,North,0,0.0,0.0,53,0.00,,,0.00,pywws,2013-05-07 10:41:00,
2013-05-07 04:46:00,49.5,34.4,30.05,NW,315,0.7,2.2,56,0.00,,,0.00,pywws,2013-05-07 10:46:00,
2013-05-07 05:00:00,49.6,34.1,30.05,North,0,0.0,0.0,55,0.00,,,0.00,pywws,2013-05-07 11:00:00,
2013-05-07 05:01:00,50.2,33.2,30.05,North,0,0.0,0.0,52,0.00,,,0.00,pywws,2013-05-07 11:01:00,
2013-05-07 05:06:00,50.0,33.1,30.05,South,180,0.0,0.0,52,0.00,,,0.00,pywws,2013-05-07 11:06:00,
2013-05-07 05:11:00,49.8,33.4,30.05,NW,315,0.0,0.0,53,0.00,,,0.00,pywws,2013-05-07 11:11:00,
2013-05-07 05:16:00,49.8,33.8,30.05,North,0,0.0,0.0,54,0.00,,,0.00,pywws,2013-05-07 11:16:00,
2013-05-07 05:21:00,49.8,33.4,30.05,North,0,0.0,0.0,53,0.00,,,0.00,pywws,2013-05-07 11:21:00,
2013-05-07 05:26:00,50.0,33.5,30.05,SE,135,0.0,0.0,53,0.00,,,0.00,pywws,2013-05-07 11:26:00,
2013-05-07 05:31:00,50.0,33.1,30.05,South,180,0.0,0.0,52,0.00,,,0.00,pywws,2013-05-07 11:31:00,
2013-05-07 05:36:00,50.4,32.9,30.05,SE,135,1.6,2.2,51,0.00,,,0.00,pywws,2013-05-07 11:36:00,
2013-05-07 05:41:00,51.4,33.4,30.05,West,270,0.0,0.7,50,0.00,,,0.00,pywws,2013-05-07 11:41:00,
2013-05-07 05:46:00,50.7,33.7,30.05,SE,135,0.0,1.6,52,0.00,,,0.00,pywws,2013-05-07 11:46:00,
2013-05-07 06:00:00,50.9,33.4,30.06,SE,135,0.7,2.2,51,0.00,,,0.00,pywws,2013-05-07 12:00:00,
2013-05-07 06:01:00,50.2,34.6,30.06,SE,135,2.2,3.1,55,0.00,,,0.00,pywws,2013-05-07 12:01:00,
2013-05-07 06:06:00,50.2,35.5,30.06,SE,135,0.0,1.6,57,0.00,,,0.00,pywws,2013-05-07 12:06:00,
2013-05-07 06:11:00,50.0,34.5,30.05,South,180,0.0,0.0,55,0.00,,,0.00,pywws,2013-05-07 12:11:00,
2013-05-07 06:16:00,50.0,34.5,30.06,South,180,0.0,0.7,55,0.00,,,0.00,pywws,2013-05-07 12:16:00,
2013-05-07 06:21:00,50.0,34.5,30.06,South,180,0.0,0.0,55,0.00,,,0.00,pywws,2013-05-07 12:21:00,
2013-05-07 06:27:00,50.0,34.9,30.06,SE,135,0.7,1.6,56,0.00,,,0.00,pywws,2013-05-07 12:27:00,
2013-05-07 06:32:00,50.0,35.8,30.06,SE,135,0.0,1.6,58,0.00,,,0.00,pywws,2013-05-07 12:32:00,
2013-05-07 06:37:00,49.8,36.9,30.06,SE,135,2.2,5.4,61,0.00,,,0.00,pywws,2013-05-07 12:37:00,
2013-05-07 06:43:00,49.1,36.6,30.06,SE,135,3.1,4.5,62,0.00,,,0.00,pywws,2013-05-07 12:43:00,
2013-05-07 06:48:00,49.3,36.8,30.07,SE,135,2.2,3.8,62,0.00,,,0.00,pywws,2013-05-07 12:48:00,
2013-05-07 07:00:00,49.6,37.2,30.07,SE,135,0.7,2.2,62,0.00,,,0.00,pywws,2013-05-07 13:00:00,
2013-05-07 07:04:00,50.0,37.1,30.07,SE,135,0.7,1.6,61,0.00,,,0.00,pywws,2013-05-07 13:04:00,
2013-05-07 07:09:00,50.0,36.7,30.08,SE,135,3.1,4.5,60,0.00,,,0.00,pywws,2013-05-07 13:09:00,
2013-05-07 07:15:00,50.0,36.7,30.08,SE,135,3.1,3.8,60,0.00,,,0.00,pywws,2013-05-07 13:15:00,
2013-05-07 07:20:00,49.8,36.9,30.08,SE,135,1.6,3.8,61,0.00,,,0.00,pywws,2013-05-07 13:20:00,
2013-05-07 07:25:00,49.8,36.9,30.08,SE,135,0.0,0.7,61,0.00,,,0.00,pywws,2013-05-07 13:25:00,
2013-05-07 07:31:00,49.8,36.9,30.08,South,180,0.7,2.2,61,0.00,,,0.00,pywws,2013-05-07 13:31:00,
2013-05-07 07:36:00,49.8,36.9,30.08,SE,135,3.1,4.5,61,0.00,,,0.00,pywws,2013-05-07 13:36:00,
2013-05-07 07:41:00,50.0,36.7,30.08,SE,135,3.1,3.8,60,0.00,,,0.00,pywws,2013-05-07 13:41:00,
2013-05-07 07:46:00,50.0,36.7,30.08,SE,135,3.1,3.8,60,0.00,,,0.00,pywws,2013-05-07 13:46:00,
2013-05-07 09:11:00,54.9,38.1,30.09,East,90,2.2,3.8,53,0.00,,,0.00,pywws,2013-05-07 15:11:00,
2013-05-07 09:16:00,54.9,38.1,30.09,East,90,2.2,3.8,53,0.00,,,0.00,pywws,2013-05-07 15:16:00,
2013-05-07 09:41:00,59.4,38.6,30.09,SE,135,0.0,1.6,46,0.00,,,0.00,pywws,2013-05-07 15:41:00,
2013-05-07 09:46:00,59.4,38.6,30.09,SE,135,0.0,1.6,46,0.00,,,0.00,pywws,2013-05-07 15:46:00,
2013-05-07 10:01:00,60.8,37.0,30.09,SE,135,0.0,0.0,41,0.00,,,0.00,pywws,2013-05-07 16:01:00,
2013-05-07 10:06:00,60.8,37.0,30.09,SE,135,0.0,0.0,41,0.00,,,0.00,pywws,2013-05-07 16:06:00,
2013-05-07 12:11:00,71.2,35.5,30.07,North,0,1.6,2.2,27,0.00,,,0.00,pywws,2013-05-07 18:11:00,
2013-05-07 12:16:00,71.2,35.5,30.07,North,0,1.6,2.2,27,0.00,,,0.00,pywws,2013-05-07 18:16:00,
2013-05-07 15:01:00,66.4,29.5,30.03,SE,135,4.5,7.6,25,0.00,,,0.00,pywws,2013-05-07 21:01:00,
2013-05-07 15:16:00,68.4,29.1,30.04,SE,135,4.5,9.2,23,0.00,,,0.00,pywws,2013-05-07 21:16:00,
2013-05-07 15:21:00,67.1,29.1,30.03,South,180,4.5,6.0,24,0.00,,,0.00,pywws,2013-05-07 21:21:00,
2013-05-07 15:26:00,66.6,29.6,30.03,West,270,3.8,4.5,25,0.00,,,0.00,pywws,2013-05-07 21:26:00,
2013-05-07 15:31:00,66.9,29.0,30.03,SE,135,1.6,3.8,24,0.00,,,0.00,pywws,2013-05-07 21:31:00,
2013-05-07 15:36:00,68.4,30.2,30.02,South,180,0.0,0.7,24,0.00,,,0.00,pywws,2013-05-07 21:36:00,
2013-05-07 15:41:00,68.4,30.2,30.03,South,180,0.0,0.7,24,0.00,,,0.00,pywws,2013-05-07 21:41:00,
2013-05-07 15:46:00,71.4,27.0,30.02,SE,135,3.8,6.9,19,0.00,,,0.00,pywws,2013-05-07 21:46:00,
2013-05-07 16:00:00,70.3,27.4,30.03,SE,135,0.0,1.6,20,0.00,,,0.00,pywws,2013-05-07 22:00:00,
2013-05-07 16:01:00,69.6,29.1,30.02,SE,135,5.4,7.6,22,0.00,,,0.00,pywws,2013-05-07 22:01:00,
2013-05-07 16:06:00,67.6,28.5,30.02,SW,225,1.6,3.1,23,0.00,,,0.00,pywws,2013-05-07 22:06:00,
2013-05-07 16:11:00,69.4,30.0,30.02,North,0,0.0,0.7,23,0.00,,,0.00,pywws,2013-05-07 22:11:00,
2013-05-07 16:16:00,70.7,28.8,30.02,North,0,0.0,0.0,21,0.00,,,0.00,pywws,2013-05-07 22:16:00,
2013-05-07 16:21:00,71.2,28.1,30.01,SE,135,0.7,1.6,20,0.00,,,0.00,pywws,2013-05-07 22:21:00,
2013-05-07 16:26:00,75.7,31.8,30.02,SE,135,1.6,3.1,20,0.00,,,0.00,pywws,2013-05-07 22:26:00,
2013-05-07 16:31:00,77.7,29.4,30.02,ESE,112,0.7,2.2,17,0.00,,,0.00,pywws,2013-05-07 22:31:00,
2013-05-07 16:36:00,75.9,29.4,30.02,SW,225,2.2,3.8,18,0.00,,,0.00,pywws,2013-05-07 22:36:00,
2013-05-07 16:41:00,73.4,28.6,30.02,NE,45,3.1,4.5,19,0.00,,,0.00,pywws,2013-05-07 22:41:00,
2013-05-07 16:46:00,71.8,23.2,30.02,North,0,1.6,3.8,16,0.00,,,0.00,pywws,2013-05-07 22:46:00,
2013-05-07 17:01:00,70.3,26.1,30.02,North,0,2.2,7.6,19,0.00,,,0.00,pywws,2013-05-07 23:01:00,
2013-05-07 17:06:00,65.5,36.4,30.03,North,0,2.2,4.5,34,0.00,,,0.00,pywws,2013-05-07 23:06:00,
2013-05-07 17:11:00,64.8,36.5,30.03,SE,135,3.1,6.9,35,0.00,,,0.00,pywws,2013-05-07 23:11:00,
2013-05-07 17:16:00,63.9,37.8,30.03,South,180,3.8,6.9,38,0.00,,,0.00,pywws,2013-05-07 23:16:00,
2013-05-07 17:21:00,63.1,37.8,30.03,South,180,5.4,9.2,39,0.00,,,0.00,pywws,2013-05-07 23:21:00,
2013-05-07 17:26:00,61.2,39.1,30.03,West,270,4.5,10.7,44,0.00,,,0.00,pywws,2013-05-07 23:26:00,
2013-05-07 17:31:00,61.2,39.1,30.04,West,270,4.5,10.7,44,0.00,,,0.00,pywws,2013-05-07 23:31:00,
2013-05-07 17:41:00,60.3,38.3,30.04,NE,45,6.0,13.0,44,0.00,,,0.00,pywws,2013-05-07 23:41:00,
2013-05-07 17:46:00,59.5,40.9,30.04,West,270,4.5,6.9,50,0.00,,,0.00,pywws,2013-05-07 23:46:00,
2013-05-07 18:00:00,58.8,41.2,30.04,NW,315,3.8,6.0,52,0.00,,,0.00,pywws,2013-05-08 00:00:00,
2013-05-07 18:01:00,59.0,40.4,30.05,North,0,1.6,2.2,50,0.00,,,0.00,pywws,2013-05-08 00:01:00,
2013-05-07 18:06:00,58.5,40.9,30.05,NW,315,0.0,0.0,52,0.00,,,0.00,pywws,2013-05-08 00:06:00,
2013-05-07 18:11:00,58.1,41.5,30.05,NW,315,1.6,3.1,54,0.00,,,0.00,pywws,2013-05-08 00:11:00,
2013-05-07 18:16:00,57.7,41.2,30.06,NW,315,5.4,6.9,54,0.00,,,0.00,pywws,2013-05-08 00:16:00,
2013-05-07 18:21:00,57.6,40.6,30.06,North,0,1.6,2.2,53,0.00,,,0.00,pywws,2013-05-08 00:21:00,
2013-05-07 18:26:00,57.6,41.0,30.06,NW,315,2.2,4.5,54,0.00,,,0.00,pywws,2013-05-08 00:26:00,
2013-05-07 18:31:00,57.4,41.3,30.06,North,0,0.7,1.6,55,0.00,,,0.00,pywws,2013-05-08 00:31:00,
2013-05-07 18:36:00,57.0,43.3,30.06,West,270,0.0,1.6,60,0.00,,,0.00,pywws,2013-05-08 00:36:00,
2013-05-07 18:41:00,56.5,41.4,30.06,South,180,1.6,4.5,57,0.00,,,0.00,pywws,2013-05-08 00:41:00,
2013-05-07 18:46:00,56.5,40.5,30.07,North,0,0.7,2.2,55,0.00,,,0.00,pywws,2013-05-08 00:46:00,
2013-05-07 19:00:00,56.5,41.4,30.06,NW,315,0.0,2.2,57,0.00,,,0.00,pywws,2013-05-08 01:00:00,
2013-05-07 19:01:00,55.9,40.9,30.07,North,0,0.7,1.6,57,0.00,,,0.00,pywws,2013-05-08 01:01:00,
2013-05-07 19:06:00,55.9,40.9,30.07,NW,315,4.5,6.0,57,0.00,,,0.00,pywws,2013-05-08 01:06:00,
2013-05-07 19:11:00,55.8,41.7,30.07,NW,315,0.7,3.1,59,0.00,,,0.00,pywws,2013-05-08 01:11:00,
2013-05-07 19:16:00,55.4,42.6,30.08,NE,45,3.1,4.5,62,0.00,,,0.00,pywws,2013-05-08 01:16:00,
2013-05-07 19:21:00,55.2,42.0,30.07,NW,315,3.1,4.5,61,0.00,,,0.00,pywws,2013-05-08 01:21:00,
2013-05-07 19:26:00,55.0,42.3,30.08,NE,45,1.6,3.1,62,0.00,,,0.00,pywws,2013-05-08 01:26:00,
2013-05-07 19:31:00,54.7,42.7,30.08,NW,315,3.1,4.5,64,0.00,,,0.00,pywws,2013-05-08 01:31:00,
2013-05-07 19:36:00,54.0,43.6,30.07,NW,315,3.1,3.8,68,0.00,,,0.00,pywws,2013-05-08 01:36:00,
2013-05-07 19:41:00,53.6,43.7,30.08,East,90,2.2,3.8,69,0.00,,,0.00,pywws,2013-05-08 01:41:00,
2013-05-07 19:46:00,53.1,43.9,30.08,NE,45,0.7,1.6,71,0.00,,,0.00,pywws,2013-05-08 01:46:00,
2013-05-07 20:00:00,52.5,44.1,30.09,NW,315,3.1,4.5,73,0.00,,,0.00,pywws,2013-05-08 02:00:00,
2013-05-07 20:01:00,52.0,44.0,30.09,NW,315,4.5,6.9,74,0.00,,,0.00,pywws,2013-05-08 02:01:00,
2013-05-07 20:06:00,52.2,43.8,30.09,NW,315,3.1,4.5,73,0.00,,,0.00,pywws,2013-05-08 02:06:00,
2013-05-07 20:11:00,52.3,43.2,30.09,NW,315,0.7,2.2,71,0.00,,,0.00,pywws,2013-05-08 02:11:00,
2013-05-07 20:16:00,52.3,42.8,30.09,NW,315,1.6,2.2,70,0.00,,,0.00,pywws,2013-05-08 02:16:00,
2013-05-07 20:21:00,52.5,43.0,30.10,SW,225,0.0,0.7,70,0.00,,,0.00,pywws,2013-05-08 02:21:00,
2013-05-07 20:26:00,52.5,43.4,30.11,West,270,0.0,1.6,71,0.01,,,0.01,pywws,2013-05-08 02:26:00,
2013-05-07 20:31:00,52.3,43.2,30.11,SW,225,3.8,6.0,71,0.01,,,0.01,pywws,2013-05-08 02:31:00,
2013-05-07 20:36:00,52.3,43.2,30.11,SW,225,3.8,6.9,71,0.01,,,0.01,pywws,2013-05-08 02:36:00,
2013-05-07 20:41:00,52.2,43.4,30.11,West,270,7.6,8.3,72,0.01,,,0.01,pywws,2013-05-08 02:41:00,
2013-05-07 20:46:00,51.8,43.1,30.11,NW,315,6.0,9.8,72,0.01,,,0.01,pywws,2013-05-08 02:46:00,
2013-05-07 21:01:00,51.8,42.7,30.11,NW,315,0.0,0.7,71,0.01,,,0.01,pywws,2013-05-08 03:01:00,
2013-05-07 21:06:00,51.1,42.7,30.12,NW,315,0.0,0.7,73,0.02,,,0.02,pywws,2013-05-08 03:06:00,
2013-05-07 21:11:00,50.7,42.7,30.12,North,0,0.0,1.6,74,0.02,,,0.02,pywws,2013-05-08 03:11:00,
2013-05-07 21:16:00,50.4,42.7,30.12,East,90,0.0,0.0,75,0.02,,,0.02,pywws,2013-05-08 03:16:00,
2013-05-07 21:21:00,50.2,42.9,30.12,East,90,0.0,0.0,76,0.02,,,0.02,pywws,2013-05-08 03:21:00,
2013-05-07 21:26:00,50.2,42.9,30.12,North,0,0.0,0.0,76,0.01,,,0.02,pywws,2013-05-08 03:26:00,
2013-05-07 21:31:00,50.4,43.1,30.12,North,0,0.0,0.0,76,0.01,,,0.02,pywws,2013-05-08 03:31:00,
2013-05-07 21:36:00,50.4,43.4,30.12,North,0,0.0,0.0,77,0.01,,,0.02,pywws,2013-05-08 03:36:00,
2013-05-07 21:41:00,50.4,43.4,30.12,SE,135,0.0,0.0,77,0.01,,,0.02,pywws,2013-05-08 03:41:00,
2013-05-07 21:46:00,50.4,44.1,30.13,East,90,0.0,0.0,79,0.01,,,0.02,pywws,2013-05-08 03:46:00,
2013-05-07 22:00:00,50.4,44.4,30.13,South,180,0.0,0.0,80,0.01,,,0.02,pywws,2013-05-08 04:00:00,
2013-05-07 22:01:00,50.4,45.1,30.14,South,180,2.2,3.8,82,0.01,,,0.02,pywws,2013-05-08 04:01:00,
2013-05-07 22:06:00,50.2,45.5,30.14,South,180,1.6,3.1,84,0.00,,,0.02,pywws,2013-05-08 04:06:00,
2013-05-07 22:11:00,50.2,45.2,30.14,South,180,0.7,1.6,83,0.00,,,0.02,pywws,2013-05-08 04:11:00,
2013-05-07 22:16:00,50.2,45.2,30.14,SE,135,1.6,3.1,83,0.00,,,0.02,pywws,2013-05-08 04:16:00,
2013-05-07 22:21:00,50.2,45.5,30.14,SE,135,1.6,3.1,84,0.00,,,0.02,pywws,2013-05-08 04:21:00,
2013-05-07 22:26:00,50.0,46.0,30.14,SE,135,0.0,1.6,86,0.00,,,0.02,pywws,2013-05-08 04:26:00,
2013-05-07 22:31:00,49.6,45.9,30.14,SE,135,0.7,2.2,87,0.00,,,0.02,pywws,2013-05-08 04:31:00,
2013-05-07 22:36:00,49.6,45.6,30.14,SE,135,1.6,3.1,86,0.00,,,0.02,pywws,2013-05-08 04:36:00,
2013-05-07 22:41:00,49.8,45.5,30.14,SE,135,0.7,2.2,85,0.00,,,0.02,pywws,2013-05-08 04:41:00,
2013-05-07 22:46:00,49.6,45.3,30.14,SE,135,0.7,1.6,85,0.00,,,0.02,pywws,2013-05-08 04:46:00,
2013-05-07 23:00:00,49.3,45.0,30.14,South,180,0.0,0.0,85,0.00,,,0.02,pywws,2013-05-08 05:00:00,
2013-05-07 23:01:00,49.3,45.0,30.14,SW,225,1.6,3.1,85,0.00,,,0.02,pywws,2013-05-08 05:01:00,
2013-05-07 23:11:00,48.9,44.0,30.14,West,270,3.1,3.8,83,0.00,,,0.02,pywws,2013-05-08 05:11:00,
2013-05-07 23:21:00,47.5,43.2,30.13,NW,315,4.5,5.4,85,0.00,,,0.02,pywws,2013-05-08 05:21:00,
2013-05-07 23:31:00,47.5,44.4,30.12,West,270,3.8,4.5,89,0.00,,,0.02,pywws,2013-05-08 05:31:00,
2013-05-07 23:36:00,47.3,44.5,30.12,West,270,3.8,6.0,90,0.00,,,0.02,pywws,2013-05-08 05:36:00,
2013-05-07 23:46:00,47.1,44.3,30.12,West,270,5.4,6.9,90,0.00,,,0.02,pywws,2013-05-08 05:46:00,